Time;durP1;ratioP1;P1;durP2;ratioP2;P2;SDS_P1;SDS_P2;PMS_P1;PMS_P2;Temp;Humidity;BMP_temperature;BMP_pressure;BME280_temperature;BME280_humidity;BME280_pressure;Samples;Min_cycle;Max_cycle;Signal;HPM_P1;HPM_P2
2023/07/28 00:00:53;;;;;;;9.37;2.90;;;18.60;58.50;;;;;;6159164;23;20013;-85
2023/07/28 00:03:20;;;;;;;9.65;2.20;;;18.60;58.10;;;;;;6159211;23;20021;-85
2023/07/28 00:05:47;;;;;;;6.65;1.60;;;18.70;57.70;;;;;;6183412;23;20021;-86
2023/07/28 00:08:14;;;;;;;9.27;2.25;;;18.80;56.90;;;;;;6183774;23;20021;-86
2023/07/28 00:10:42;;;;;;;12.43;3.35;;;18.90;57.90;;;;;;6183837;23;20013;-86
2023/07/28 00:13:09;;;;;;;10.03;3.40;;;18.90;57.60;;;;;;6183661;23;20352;-86
2023/07/28 00:15:36;;;;;;;10.07;3.28;;;19.00;57.90;;;;;;6184733;23;20351;-86
2023/07/28 00:18:03;;;;;;;9.95;3.38;;;19.00;58.50;;;;;;6161044;23;20071;-86
2023/07/28 00:20:30;;;;;;;8.25;3.50;;;19.00;58.80;;;;;;6187344;23;20013;-87
2023/07/28 00:22:58;;;;;;;8.20;3.13;;;19.00;59.60;;;;;;6185861;23;20067;-87
2023/07/28 00:25:25;;;;;;;6.83;3.13;;;18.90;59.10;;;;;;6186097;23;20013;-86
2023/07/28 00:27:52;;;;;;;7.43;3.05;;;18.70;58.80;;;;;;6161031;23;20028;-86
2023/07/28 00:30:19;;;;;;;8.75;3.03;;;18.60;58.60;;;;;;6160973;23;20025;-86
2023/07/28 00:32:46;;;;;;;9.43;3.08;;;18.60;59.30;;;;;;6161238;23;20048;-86
2023/07/28 00:35:14;;;;;;;6.95;2.83;;;18.60;59.80;;;;;;6185839;23;20021;-86
2023/07/28 00:37:41;;;;;;;6.20;2.93;;;18.50;60.00;;;;;;6187292;23;20395;-87
2023/07/28 00:40:08;;;;;;;6.93;2.35;;;18.40;58.90;;;;;;6161079;23;20096;-86
2023/07/28 00:42:35;;;;;;;5.53;2.35;;;18.30;59.20;;;;;;6160847;23;20024;-86
2023/07/28 00:45:03;;;;;;;6.57;2.65;;;18.30;59.60;;;;;;6161070;23;20048;-86
2023/07/28 00:47:31;;;;;;;5.90;2.38;;;18.30;59.50;;;;;;6161145;23;20091;-86
2023/07/28 00:49:58;;;;;;;5.40;2.03;;;18.30;59.70;;;;;;6161111;23;20028;-86
2023/07/28 00:52:25;;;;;;;6.57;2.38;;;18.30;59.00;;;;;;6185433;23;20043;-86
2023/07/28 00:54:52;;;;;;;7.28;2.30;;;18.30;59.00;;;;;;6160964;23;20032;-86
2023/07/28 00:57:19;;;;;;;6.70;2.63;;;18.20;59.40;;;;;;6161025;23;20016;-86
2023/07/28 00:59:46;;;;;;;6.35;2.47;;;18.20;59.90;;;;;;6160910;23;20096;-86
2023/07/28 01:02:18;;;;;;;5.43;2.40;;;18.10;59.50;;;;;;6161798;23;20021;-86
2023/07/28 01:04:46;;;;;;;6.82;2.67;;;18.10;59.80;;;;;;6160612;23;20017;-86
2023/07/28 01:07:22;;;;;;;9.45;2.53;;;18.10;59.90;;;;;;6160859;23;20120;-86
2023/07/28 01:09:56;;;;;;;5.57;2.63;;;18.10;59.50;;;;;;6160794;23;20035;-86
2023/07/28 01:12:24;;;;;;;6.78;3.20;;;18.00;60.00;;;;;;6185275;23;20040;-86
2023/07/28 01:14:51;;;;;;;6.40;2.73;;;18.10;60.00;;;;;;6185218;23;20451;-86
2023/07/28 01:17:19;;;;;;;8.30;3.40;;;18.10;60.50;;;;;;6160235;23;20032;-85
2023/07/28 01:19:46;;;;;;;6.28;2.92;;;18.20;60.20;;;;;;6160802;23;20029;-86
2023/07/28 01:22:41;;;;;;;9.57;3.08;;;18.20;60.00;;;;;;6185215;23;20025;-86
2023/07/28 01:25:08;;;;;;;9.52;3.63;;;18.20;60.40;;;;;;6185226;23;20247;-86
2023/07/28 01:27:37;;;;;;;11.53;3.63;;;18.30;60.10;;;;;;6160188;23;20028;-86
2023/07/28 01:30:05;;;;;;;7.78;3.25;;;18.30;60.60;;;;;;6160738;23;20040;-86
2023/07/28 01:32:32;;;;;;;8.35;2.60;;;18.40;60.30;;;;;;6160400;23;20017;-86
2023/07/28 01:34:59;;;;;;;9.82;3.40;;;18.40;60.20;;;;;;6160493;23;20075;-85
2023/07/28 01:37:26;;;;;;;7.00;2.85;;;18.40;60.00;;;;;;6160494;23;20024;-86
2023/07/28 01:39:54;;;;;;;7.97;2.40;;;18.30;59.90;;;;;;6160474;23;20028;-86
2023/07/28 01:42:21;;;;;;;5.07;2.20;;;18.30;59.70;;;;;;6185127;23;20067;-86
2023/07/28 01:44:48;;;;;;;5.30;2.05;;;18.30;60.20;;;;;;6160291;23;20028;-86
2023/07/28 01:47:15;;;;;;;6.70;2.17;;;18.30;59.70;;;;;;6160441;23;20029;-86
2023/07/28 01:49:42;;;;;;;4.50;1.92;;;18.30;59.60;;;;;;6160460;23;20031;-86
2023/07/28 01:52:09;;;;;;;6.43;2.23;;;18.20;59.60;;;;;;6160019;23;20398;-85
2023/07/28 01:54:36;;;;;;;5.25;2.00;;;18.30;59.50;;;;;;6160473;23;20104;-86
2023/07/28 01:57:04;;;;;;;6.68;2.75;;;18.30;59.90;;;;;;6160500;23;20076;-86
2023/07/28 01:59:31;;;;;;;6.50;3.35;;;18.30;60.30;;;;;;6160532;23;20020;-86
2023/07/28 02:01:58;;;;;;;7.57;3.53;;;18.30;60.20;;;;;;6160632;23;20108;-86
2023/07/28 02:04:28;;;;;;;12.63;4.30;;;18.30;60.60;;;;;;6160343;23;20048;-87
2023/07/28 02:06:55;;;;;;;8.63;4.03;;;18.30;60.60;;;;;;6160589;23;20025;-86
2023/07/28 02:09:22;;;;;;;10.70;3.78;;;18.30;61.20;;;;;;6184968;23;20021;-86
2023/07/28 02:11:49;;;;;;;9.65;4.55;;;18.30;61.20;;;;;;6159995;23;20017;-86
2023/07/28 02:14:16;;;;;;;8.35;3.80;;;18.40;61.10;;;;;;6160184;23;20044;-86
2023/07/28 02:16:43;;;;;;;10.73;3.53;;;18.40;60.90;;;;;;6184400;23;20356;-86
2023/07/28 02:19:10;;;;;;;11.98;3.65;;;18.50;60.90;;;;;;6184876;23;20025;-86
2023/07/28 02:21:37;;;;;;;9.48;3.63;;;18.50;60.60;;;;;;6159793;23;20065;-86
2023/07/28 02:24:04;;;;;;;9.55;3.00;;;18.50;61.10;;;;;;6184448;23;20028;-86
2023/07/28 02:26:31;;;;;;;7.07;2.55;;;18.40;61.00;;;;;;6184398;23;20027;-86
2023/07/28 02:28:59;;;;;;;7.67;2.40;;;18.40;60.90;;;;;;6184515;23;20021;-86
2023/07/28 02:31:26;;;;;;;7.22;2.60;;;18.40;61.00;;;;;;6184378;23;20013;-85
2023/07/28 02:33:53;;;;;;;8.73;3.33;;;18.30;61.00;;;;;;6159662;23;20391;-85
2023/07/28 02:36:20;;;;;;;18.92;6.28;;;18.40;61.20;;;;;;6184446;23;20059;-86
2023/07/28 02:38:47;;;;;;;21.25;6.35;;;18.30;61.40;;;;;;6159122;23;20021;-86
2023/07/28 02:41:14;;;;;;;24.70;8.30;;;18.40;61.60;;;;;;6184137;23;20044;-86
2023/07/28 02:43:41;;;;;;;19.98;6.60;;;18.30;61.90;;;;;;6159631;23;20440;-85
2023/07/28 02:46:08;;;;;;;19.85;7.32;;;18.40;61.80;;;;;;6159893;23;20017;-86
2023/07/28 02:48:35;;;;;;;28.17;8.23;;;18.40;61.60;;;;;;6159664;23;20478;-86
2023/07/28 02:51:02;;;;;;;13.48;4.97;;;18.50;61.50;;;;;;6184254;23;20021;-86
2023/07/28 02:53:29;;;;;;;10.73;3.90;;;18.50;61.50;;;;;;6159466;23;20025;-86
2023/07/28 02:55:56;;;;;;;11.25;4.00;;;18.40;61.50;;;;;;6159667;23;20017;-86
2023/07/28 02:58:23;;;;;;;11.93;3.97;;;18.50;61.50;;;;;;6184114;23;20075;-85
2023/07/28 03:00:52;;;;;;;17.95;4.53;;;18.50;61.40;;;;;;6184014;23;20013;-85
2023/07/28 03:03:27;;;;;;;11.52;4.20;;;18.40;61.40;;;;;;6184019;23;20087;-86
2023/07/28 03:05:54;;;;;;;14.00;3.50;;;18.40;61.60;;;;;;6183630;23;20517;-85
2023/07/28 03:08:30;;;;;;;9.02;2.95;;;18.40;61.60;;;;;;6161128;23;20031;-85
2023/07/28 03:11:15;;;;;;;8.35;2.97;;;18.40;61.80;;;;;;6162927;23;20021;-85
2023/07/28 03:13:42;;;;;;;7.72;3.00;;;18.40;62.00;;;;;;6159227;23;20325;-85
2023/07/28 03:16:09;;;;;;;11.15;3.83;;;18.50;62.60;;;;;;6158966;23;20017;-85
2023/07/28 03:18:37;;;;;;;11.13;3.83;;;18.50;63.60;;;;;;6134578;23;20075;-85
2023/07/28 03:21:04;;;;;;;11.50;3.63;;;18.40;64.30;;;;;;6159362;23;20024;-85
2023/07/28 03:23:31;;;;;;;13.25;4.38;;;18.30;65.50;;;;;;6158949;23;20332;-84
2023/07/28 03:25:58;;;;;;;11.35;3.97;;;18.20;65.10;;;;;;6183766;23;20025;-85
2023/07/28 03:28:25;;;;;;;12.07;4.10;;;18.10;64.70;;;;;;6183611;23;20402;-85
2023/07/28 03:30:52;;;;;;;13.73;3.97;;;18.10;65.30;;;;;;6159100;23;20052;-85
2023/07/28 03:33:20;;;;;;;15.05;3.45;;;18.10;65.10;;;;;;6183459;23;20021;-85
2023/07/28 03:35:47;;;;;;;11.27;3.92;;;18.10;64.50;;;;;;6158988;23;20321;-85
2023/07/28 03:38:14;;;;;;;15.30;3.78;;;18.10;65.20;;;;;;6158963;23;20020;-85
2023/07/28 03:40:43;;;;;;;10.63;3.60;;;18.00;65.40;;;;;;6158772;23;20021;-85
2023/07/28 03:43:10;;;;;;;10.13;3.83;;;18.10;65.00;;;;;;6183589;23;20020;-85
2023/07/28 03:45:37;;;;;;;10.45;3.75;;;18.10;65.30;;;;;;6159143;23;20025;-85
2023/07/28 03:48:04;;;;;;;11.52;4.20;;;18.10;65.40;;;;;;6158822;23;20360;-85
2023/07/28 03:50:31;;;;;;;11.93;3.78;;;18.10;65.40;;;;;;6158758;23;20443;-85
2023/07/28 03:52:58;;;;;;;10.27;3.42;;;18.10;65.50;;;;;;6158779;23;20355;-85
2023/07/28 03:55:25;;;;;;;8.43;3.30;;;18.20;65.30;;;;;;6158978;23;20017;-85
2023/07/28 03:57:52;;;;;;;10.75;3.20;;;18.20;65.10;;;;;;6158954;23;20104;-85
2023/07/28 04:00:20;;;;;;;6.18;2.28;;;18.20;64.60;;;;;;6184588;23;20013;-85
2023/07/28 04:02:47;;;;;;;8.52;2.58;;;18.10;64.60;;;;;;6158848;23;20025;-85
2023/07/28 04:05:14;;;;;;;8.07;3.20;;;18.10;65.10;;;;;;6158588;23;20394;-85
2023/07/28 04:07:41;;;;;;;8.33;2.73;;;18.00;64.30;;;;;;6158972;23;20037;-85
2023/07/28 04:10:08;;;;;;;7.10;2.63;;;18.10;64.70;;;;;;6158767;23;20018;-85
2023/07/28 04:12:35;;;;;;;7.75;2.90;;;18.10;65.20;;;;;;6183210;23;20028;-85
2023/07/28 04:15:03;;;;;;;6.03;2.72;;;18.10;65.60;;;;;;6158862;23;20444;-85
2023/07/28 04:17:30;;;;;;;10.00;5.03;;;18.10;65.40;;;;;;6206533;23;20063;-85
2023/07/28 04:19:57;;;;;;;10.53;2.80;;;18.20;65.70;;;;;;6188521;23;20017;-85
2023/07/28 04:22:24;;;;;;;8.38;3.20;;;18.20;66.00;;;;;;6163802;23;20044;-85
2023/07/28 04:24:54;;;;;;;8.32;3.05;;;18.20;66.30;;;;;;6163897;23;20355;-85
2023/07/28 04:27:21;;;;;;;7.05;2.92;;;18.10;66.70;;;;;;6163901;23;20099;-85
2023/07/28 04:29:49;;;;;;;6.40;2.58;;;18.10;67.40;;;;;;6163922;23;20025;-85
2023/07/28 04:32:19;;;;;;;7.50;3.37;;;18.10;67.40;;;;;;6164436;23;20111;-85
2023/07/28 04:34:48;;;;;;;14.25;4.35;;;18.10;68.40;;;;;;6163748;23;20459;-85
2023/07/28 04:37:18;;;;;;;12.95;4.10;;;18.00;68.50;;;;;;6164509;23;20455;-85
2023/07/28 04:39:55;;;;;;;9.85;3.88;;;17.90;69.30;;;;;;6165534;23;20043;-85
2023/07/28 04:42:22;;;;;;;10.70;4.40;;;17.80;69.50;;;;;;6163764;23;20414;-85
2023/07/28 04:44:49;;;;;;;10.53;4.30;;;17.80;70.40;;;;;;6163823;23;20017;-85
2023/07/28 04:47:17;;;;;;;11.73;5.63;;;17.80;70.80;;;;;;6163614;23;20020;-85
2023/07/28 04:49:45;;;;;;;25.45;15.32;;;17.70;71.60;;;;;;6163695;23;20320;-85
2023/07/28 04:52:47;;;;;;;16.00;8.90;;;17.70;71.70;;;;;;6076931;23;20023;-85
2023/07/28 04:55:33;;;;;;;15.60;4.88;;;17.60;72.80;;;;;;6204488;23;20027;-85
2023/07/28 04:58:00;;;;;;;15.03;5.47;;;17.50;72.70;;;;;;6163639;23;20382;-85
2023/07/28 05:00:36;;;;;;;14.45;5.40;;;17.40;73.30;;;;;;6165428;23;20016;-84
2023/07/28 05:03:04;;;;;;;12.73;4.70;;;17.40;73.80;;;;;;6164518;23;20023;-85
2023/07/28 05:05:36;;;;;;;12.85;4.70;;;17.30;73.60;;;;;;6166536;23;20395;-85
2023/07/28 05:08:06;;;;;;;16.95;6.85;;;17.40;74.00;;;;;;6190220;23;20055;-85
2023/07/28 05:10:33;;;;;;;11.77;5.67;;;17.50;74.40;;;;;;6164935;23;20530;-85
2023/07/28 05:13:00;;;;;;;15.90;5.90;;;17.40;73.70;;;;;;6165370;23;20031;-85
2023/07/28 05:15:27;;;;;;;18.73;7.22;;;17.40;74.40;;;;;;6190006;23;20020;-85
2023/07/28 05:17:54;;;;;;;18.90;8.27;;;17.40;74.20;;;;;;6164887;23;20354;-85
2023/07/28 05:20:50;;;;;;;21.85;7.32;;;17.40;74.50;;;;;;6196208;23;20021;-85
2023/07/28 05:23:18;;;;;;;14.33;6.00;;;17.40;75.00;;;;;;6165490;23;20075;-85
2023/07/28 05:25:45;;;;;;;19.60;6.43;;;17.50;74.50;;;;;;6190168;23;20043;-85
2023/07/28 05:28:12;;;;;;;15.48;5.43;;;17.50;74.90;;;;;;6164316;23;20016;-85
2023/07/28 05:30:41;;;;;;;17.05;5.30;;;17.50;75.00;;;;;;6164832;23;20039;-85
2023/07/28 05:33:08;;;;;;;17.77;4.93;;;17.50;74.30;;;;;;6189058;23;20416;-85
2023/07/28 05:36:02;;;;;;;13.87;4.50;;;17.60;74.40;;;;;;6167096;23;20351;-87
2023/07/28 05:38:33;;;;;;;15.77;5.68;;;17.60;74.80;;;;;;6166162;23;20021;-87
2023/07/28 05:41:02;;;;;;;10.48;4.40;;;17.60;75.10;;;;;;6166047;23;20044;-87
2023/07/28 05:43:31;;;;;;;13.15;4.63;;;17.60;75.10;;;;;;6166133;23;20020;-88
2023/07/28 05:46:00;;;;;;;13.05;5.32;;;17.60;75.50;;;;;;6166181;23;20083;-87
2023/07/28 05:48:30;;;;;;;17.33;7.33;;;17.70;76.10;;;;;;6166941;23;20027;-88
2023/07/28 05:50:57;;;;;;;18.92;8.00;;;17.80;76.50;;;;;;6166227;23;20103;-87
2023/07/28 05:53:24;;;;;;;16.98;9.80;;;17.70;76.50;;;;;;6190333;23;20020;-88
2023/07/28 05:55:56;;;;;;;30.60;14.60;;;17.70;76.60;;;;;;6167040;23;20024;-88
2023/07/28 05:58:24;;;;;;;24.67;11.35;;;17.60;77.10;;;;;;6166316;23;20043;-88
2023/07/28 06:00:51;;;;;;;26.73;10.80;;;17.50;77.00;;;;;;6190885;23;20091;-89
2023/07/28 06:03:38;;;;;;;22.25;9.85;;;17.60;77.20;;;;;;6195554;23;20084;-89
2023/07/28 06:06:14;;;;;;;20.70;8.45;;;17.60;77.70;;;;;;6168752;23;20020;-89
2023/07/28 06:08:41;;;;;;;17.27;7.28;;;17.60;77.80;;;;;;6166633;23;20112;-90
2023/07/28 06:11:08;;;;;;;21.00;6.68;;;17.70;77.40;;;;;;6166780;23;20052;-90
2023/07/28 06:13:35;;;;;;;21.00;7.03;;;17.70;77.50;;;;;;6166378;23;20017;-89
2023/07/28 06:16:02;;;;;;;19.00;6.20;;;17.70;77.40;;;;;;6166404;23;20028;-89
2023/07/28 06:18:30;;;;;;;12.90;5.63;;;17.80;78.10;;;;;;6190993;23;20070;-88
2023/07/28 06:21:06;;;;;;;13.85;4.65;;;17.90;78.00;;;;;;6190825;23;20517;-88
2023/07/28 06:23:33;;;;;;;11.82;4.50;;;17.90;76.90;;;;;;6166074;23;20048;-87
2023/07/28 06:26:01;;;;;;;14.23;5.23;;;17.90;77.00;;;;;;6165631;23;20112;-87
2023/07/28 06:28:28;;;;;;;14.35;5.50;;;17.90;77.10;;;;;;6165972;23;20355;-88
2023/07/28 06:30:57;;;;;;;16.17;5.72;;;17.90;77.50;;;;;;6165795;23;20032;-87
2023/07/28 06:33:25;;;;;;;18.02;7.07;;;17.90;77.90;;;;;;6165703;23;20016;-86
2023/07/28 06:35:52;;;;;;;22.83;9.23;;;17.90;78.00;;;;;;6165268;23;20073;-86
2023/07/28 06:38:19;;;;;;;9.03;4.27;;;17.90;78.50;;;;;;6165292;23;20513;-86
2023/07/28 06:40:46;;;;;;;7.38;3.00;;;17.80;78.30;;;;;;6189831;23;20402;-85
2023/07/28 06:43:14;;;;;;;7.93;3.15;;;17.60;78.00;;;;;;6165373;23;20027;-86
2023/07/28 06:45:41;;;;;;;6.85;2.70;;;17.50;78.00;;;;;;6165170;23;20025;-86
2023/07/28 06:48:09;;;;;;;9.48;3.70;;;17.40;78.80;;;;;;6165207;23;20094;-87
2023/07/28 06:50:35;;;;;;;8.83;4.17;;;17.40;79.40;;;;;;6165781;23;20024;-89
2023/07/28 06:53:03;;;;;;;9.88;4.00;;;17.30;79.30;;;;;;6165570;23;20027;-88
2023/07/28 06:55:30;;;;;;;7.07;3.80;;;17.30;79.50;;;;;;6166024;23;20074;-87
2023/07/28 06:57:57;;;;;;;7.32;3.10;;;17.40;79.70;;;;;;6165890;23;20071;-89
2023/07/28 07:00:24;;;;;;;5.45;2.58;;;17.50;79.80;;;;;;6165200;23;20021;-86
2023/07/28 07:02:51;;;;;;;6.57;3.20;;;17.40;80.50;;;;;;6189751;23;20136;-86
2023/07/28 07:05:18;;;;;;;5.60;2.50;;;17.40;80.50;;;;;;6164878;23;20343;-86
2023/07/28 07:07:45;;;;;;;6.00;2.38;;;17.40;80.40;;;;;;6164967;23;20099;-86
2023/07/28 07:10:12;;;;;;;5.75;2.40;;;17.40;80.30;;;;;;6164870;23;20012;-86
2023/07/28 07:12:39;;;;;;;8.30;2.55;;;17.40;80.90;;;;;;6164974;23;20020;-86
2023/07/28 07:15:07;;;;;;;5.43;2.50;;;17.40;81.00;;;;;;6164918;23;20017;-86
2023/07/28 07:17:34;;;;;;;5.47;2.65;;;17.40;80.70;;;;;;6164498;23;20028;-86
2023/07/28 07:20:01;;;;;;;5.32;2.67;;;17.20;81.00;;;;;;6190009;23;20351;-86
2023/07/28 07:22:29;;;;;;;6.07;2.67;;;17.20;81.20;;;;;;6164941;23;20016;-86
2023/07/28 07:24:56;;;;;;;7.47;2.55;;;17.10;81.50;;;;;;6164551;23;20336;-86
2023/07/28 07:27:26;;;;;;;6.87;2.93;;;17.10;81.80;;;;;;6164985;23;20020;-86
2023/07/28 07:29:53;;;;;;;5.60;2.60;;;17.10;81.80;;;;;;6164733;23;20099;-86
2023/07/28 07:32:20;;;;;;;7.07;3.25;;;17.10;81.70;;;;;;6164911;23;20083;-86
2023/07/28 07:34:47;;;;;;;8.02;3.10;;;17.10;81.90;;;;;;6164753;23;20043;-86
2023/07/28 07:37:14;;;;;;;7.50;3.05;;;17.10;82.00;;;;;;6164648;23;20020;-86
2023/07/28 07:39:43;;;;;;;5.47;2.73;;;17.00;82.40;;;;;;6164738;23;20019;-86
2023/07/28 07:42:14;;;;;;;5.47;2.72;;;16.90;82.70;;;;;;6164693;23;20035;-86
2023/07/28 07:44:41;;;;;;;6.82;2.70;;;17.00;82.60;;;;;;6164680;23;20021;-86
2023/07/28 07:47:15;;;;;;;6.00;3.17;;;16.90;82.70;;;;;;6189721;23;20020;-86
2023/07/28 07:49:43;;;;;;;7.68;3.08;;;17.00;83.00;;;;;;6189125;23;20386;-86
2023/07/28 07:52:10;;;;;;;7.90;3.10;;;17.00;83.50;;;;;;6164626;23;20051;-86
2023/07/28 07:54:37;;;;;;;6.97;2.78;;;17.00;83.20;;;;;;6164335;23;20013;-86
2023/07/28 07:57:05;;;;;;;6.43;3.20;;;17.00;83.30;;;;;;6164381;23;20031;-86
2023/07/28 07:59:32;;;;;;;6.63;3.25;;;17.00;83.00;;;;;;6164904;23;20013;-86
2023/07/28 08:02:02;;;;;;;7.43;3.72;;;17.00;82.80;;;;;;6190175;23;20047;-86
2023/07/28 08:04:31;;;;;;;7.27;3.40;;;17.00;83.00;;;;;;6189375;23;20027;-86
2023/07/28 08:06:59;;;;;;;7.50;3.42;;;17.00;82.90;;;;;;6164599;23;20090;-86
2023/07/28 08:09:26;;;;;;;8.52;3.33;;;17.10;82.80;;;;;;6164534;23;20028;-86
2023/07/28 08:11:54;;;;;;;7.88;3.20;;;17.20;82.60;;;;;;6164737;23;20017;-86
2023/07/28 08:14:21;;;;;;;7.32;3.22;;;17.30;82.50;;;;;;6164608;23;20402;-86
2023/07/28 08:16:48;;;;;;;7.10;3.73;;;17.40;82.10;;;;;;6164619;23;20067;-86
2023/07/28 08:19:15;;;;;;;8.50;3.67;;;17.40;82.10;;;;;;6189003;23;20020;-86
2023/07/28 08:21:42;;;;;;;8.15;3.15;;;17.50;82.70;;;;;;6164691;23;20033;-86
2023/07/28 08:24:09;;;;;;;7.88;3.53;;;17.50;81.60;;;;;;6164424;23;20029;-86
2023/07/28 08:26:36;;;;;;;6.13;3.08;;;17.50;82.00;;;;;;6164530;23;20025;-86
2023/07/28 08:29:04;;;;;;;8.10;4.00;;;17.50;81.50;;;;;;6164423;23;20113;-86
2023/07/28 08:31:31;;;;;;;8.45;3.78;;;17.50;82.40;;;;;;6188954;23;20048;-86
2023/07/28 08:33:59;;;;;;;7.35;3.85;;;17.60;81.90;;;;;;6164561;23;20454;-86
2023/07/28 08:36:26;;;;;;;8.43;4.50;;;17.50;82.10;;;;;;6189116;23;20023;-86
2023/07/28 08:38:53;;;;;;;9.02;4.57;;;17.50;82.10;;;;;;6166084;23;20027;-86
2023/07/28 08:41:20;;;;;;;11.40;4.57;;;17.60;81.90;;;;;;6166401;23;20017;-86
2023/07/28 08:43:47;;;;;;;9.45;4.43;;;17.60;81.90;;;;;;6191176;23;20016;-86
2023/07/28 08:46:14;;;;;;;25.42;5.35;;;17.60;81.20;;;;;;6191303;23;20024;-86
2023/07/28 08:48:42;;;;;;;15.35;4.28;;;17.50;81.80;;;;;;6166512;23;20031;-86
2023/07/28 08:51:11;;;;;;;11.90;5.68;;;17.60;82.20;;;;;;6166419;23;20503;-86
2023/07/28 08:53:39;;;;;;;14.73;6.37;;;17.60;82.10;;;;;;6166223;23;20346;-86
2023/07/28 08:56:06;;;;;;;11.32;5.32;;;17.70;82.60;;;;;;6191186;23;20017;-86
2023/07/28 08:58:33;;;;;;;13.73;6.20;;;17.80;82.30;;;;;;6166120;23;20020;-86
2023/07/28 09:01:01;;;;;;;13.85;6.78;;;17.90;82.40;;;;;;6166435;23;20017;-86
2023/07/28 09:03:29;;;;;;;12.57;5.85;;;18.00;82.40;;;;;;6166095;23;20499;-87
2023/07/28 09:06:01;;;;;;;8.67;4.50;;;18.00;82.20;;;;;;6166314;23;20016;-86
2023/07/28 09:08:32;;;;;;;9.52;3.63;;;18.10;81.20;;;;;;6166027;23;20485;-86
2023/07/28 09:11:03;;;;;;;7.68;3.78;;;18.00;80.90;;;;;;6166325;23;20100;-86
2023/07/28 09:13:41;;;;;;;6.63;3.30;;;18.00;81.50;;;;;;6166058;23;20103;-86
2023/07/28 09:16:18;;;;;;;7.05;3.22;;;18.00;81.40;;;;;;6165874;23;20021;-86
2023/07/28 09:18:46;;;;;;;7.57;3.73;;;18.10;81.10;;;;;;6165945;23;20115;-86
2023/07/28 09:21:20;;;;;;;7.70;3.38;;;18.20;81.10;;;;;;6166103;23;20019;-86
2023/07/28 09:23:48;;;;;;;7.35;3.47;;;18.20;81.30;;;;;;6190633;23;20024;-87
2023/07/28 09:26:15;;;;;;;6.93;3.47;;;18.20;82.10;;;;;;6165988;23;20439;-86
2023/07/28 09:28:43;;;;;;;6.18;3.05;;;18.20;82.10;;;;;;6165739;23;20025;-86
2023/07/28 09:31:10;;;;;;;6.17;3.27;;;18.10;81.60;;;;;;6165985;23;20071;-86
2023/07/28 09:33:46;;;;;;;7.07;3.90;;;18.00;82.00;;;;;;6165747;23;20362;-86
2023/07/28 09:36:17;;;;;;;7.22;3.55;;;18.00;82.50;;;;;;6166062;23;20021;-86
2023/07/28 09:38:45;;;;;;;7.25;4.07;;;18.00;82.10;;;;;;6165628;23;20013;-86
2023/07/28 09:41:12;;;;;;;9.15;4.78;;;18.00;82.50;;;;;;6166005;23;20016;-86
2023/07/28 09:43:40;;;;;;;13.10;7.03;;;18.00;82.70;;;;;;6165979;23;20461;-86
2023/07/28 09:46:10;;;;;;;15.05;8.95;;;18.00;82.80;;;;;;6165850;23;20439;-86
2023/07/28 09:48:42;;;;;;;13.80;6.78;;;18.10;83.60;;;;;;6165724;23;20067;-87
2023/07/28 09:51:17;;;;;;;9.45;4.57;;;18.20;83.60;;;;;;6165866;23;20027;-86
2023/07/28 09:53:53;;;;;;;8.70;4.07;;;18.20;83.30;;;;;;6190315;23;20017;-86
2023/07/28 09:56:26;;;;;;;8.60;4.30;;;18.30;82.80;;;;;;6165782;23;20351;-86
2023/07/28 09:58:54;;;;;;;12.85;5.60;;;18.50;83.00;;;;;;6165826;23;20012;-87
2023/07/28 10:01:22;;;;;;;10.70;5.07;;;18.60;83.30;;;;;;6165718;23;20023;-86
2023/07/28 10:03:50;;;;;;;8.07;4.20;;;18.60;83.00;;;;;;6165708;23;20020;-87
2023/07/28 10:06:24;;;;;;;10.55;3.95;;;18.60;82.00;;;;;;6165525;23;20094;-86
2023/07/28 10:08:51;;;;;;;10.17;3.50;;;18.70;82.30;;;;;;6165791;23;20017;-87
2023/07/28 10:11:19;;;;;;;9.43;3.70;;;18.80;82.10;;;;;;6165909;23;20520;-87
2023/07/28 10:13:46;;;;;;;5.10;2.60;;;18.90;82.10;;;;;;6165975;23;20447;-87
2023/07/28 10:16:17;;;;;;;4.63;1.63;;;19.00;80.90;;;;;;6165346;23;20055;-87
2023/07/28 10:18:54;;;;;;;7.18;2.50;;;19.00;80.80;;;;;;6165905;23;20027;-87
2023/07/28 10:21:21;;;;;;;4.60;1.90;;;19.00;81.00;;;;;;6165586;23;20017;-86
2023/07/28 10:24:00;;;;;;;10.70;4.00;;;19.00;80.90;;;;;;6165634;23;20023;-87
2023/07/28 10:26:35;;;;;;;6.00;2.17;;;19.10;81.30;;;;;;6165727;23;20075;-88
2023/07/28 10:29:14;;;;;;;9.13;3.28;;;19.10;80.70;;;;;;6190725;23;20074;-89
2023/07/28 10:31:53;;;;;;;4.07;2.00;;;19.10;81.50;;;;;;6190773;23;20019;-89
2023/07/28 10:34:21;;;;;;;11.43;5.00;;;19.20;81.80;;;;;;6166592;23;20017;-92
2023/07/28 10:36:58;;;;;;;12.73;4.97;;;19.30;81.90;;;;;;6191289;23;20332;-92
2023/07/28 10:39:26;;;;;;;6.30;2.65;;;19.30;81.40;;;;;;6165743;23;20013;-89
2023/07/28 10:42:05;;;;;;;10.05;2.20;;;19.40;81.00;;;;;;6165678;23;20024;-88
2023/07/28 10:44:32;;;;;;;4.60;1.67;;;19.40;80.50;;;;;;6165204;23;20055;-88
2023/07/28 10:47:00;;;;;;;14.20;5.43;;;19.50;80.70;;;;;;6165591;23;20031;-88
2023/07/28 10:49:28;;;;;;;12.48;6.22;;;19.60;80.40;;;;;;6165492;23;20059;-88
2023/07/28 10:51:55;;;;;;;5.20;1.98;;;19.60;80.40;;;;;;6165605;23;20025;-88
2023/07/28 10:54:22;;;;;;;6.78;1.27;;;19.70;80.80;;;;;;6165261;23;20028;-88
2023/07/28 10:56:49;;;;;;;3.50;1.70;;;19.90;80.80;;;;;;6190295;23;20087;-88
2023/07/28 10:59:16;;;;;;;5.37;1.53;;;20.00;80.30;;;;;;6189955;23;20062;-88
2023/07/28 11:01:44;;;;;;;3.17;1.50;;;20.10;80.90;;;;;;6189469;23;20047;-87
2023/07/28 11:04:16;;;;;;;5.00;1.35;;;20.30;80.60;;;;;;6165013;23;20017;-88
2023/07/28 11:06:48;;;;;;;4.70;1.40;;;20.40;79.90;;;;;;6164819;23;20102;-88
2023/07/28 11:09:22;;;;;;;5.28;1.85;;;20.40;79.70;;;;;;6189789;23;20021;-88
2023/07/28 11:11:50;;;;;;;4.90;1.77;;;20.40;78.60;;;;;;6165547;23;20024;-89
2023/07/28 11:14:18;;;;;;;4.10;1.10;;;20.40;78.40;;;;;;6190017;23;20048;-88
2023/07/28 11:16:47;;;;;;;5.45;1.17;;;20.40;78.30;;;;;;6164869;23;20020;-88
2023/07/28 11:19:17;;;;;;;3.13;0.93;;;20.40;78.30;;;;;;6165180;23;20012;-89
2023/07/28 11:21:50;;;;;;;2.38;1.02;;;20.30;77.80;;;;;;6165262;23;20016;-89
2023/07/28 11:24:22;;;;;;;5.27;1.63;;;20.20;77.20;;;;;;6165364;23;20355;-87
2023/07/28 11:26:51;;;;;;;4.47;1.38;;;20.20;77.50;;;;;;6164943;23;20020;-87
2023/07/28 11:29:21;;;;;;;6.72;1.75;;;20.20;77.90;;;;;;6165908;23;20111;-86
2023/07/28 11:31:48;;;;;;;5.00;1.48;;;20.30;78.00;;;;;;6164279;23;20020;-87
2023/07/28 11:34:16;;;;;;;7.53;2.88;;;20.40;77.90;;;;;;6164115;23;20017;-87
2023/07/28 11:36:43;;;;;;;3.90;1.10;;;20.40;78.10;;;;;;6188746;23;20024;-87
2023/07/28 11:39:11;;;;;;;4.18;1.48;;;20.30;76.40;;;;;;6188699;23;20021;-87
2023/07/28 11:41:39;;;;;;;2.63;1.10;;;20.30;77.10;;;;;;6164143;23;20017;-87
2023/07/28 11:44:07;;;;;;;3.22;1.30;;;20.20;77.40;;;;;;6164437;23;20070;-87
2023/07/28 11:46:39;;;;;;;2.70;1.27;;;20.40;77.50;;;;;;6188774;23;20013;-87
2023/07/28 11:49:07;;;;;;;2.67;1.53;;;20.50;76.90;;;;;;6188543;23;20016;-86
2023/07/28 11:51:43;;;;;;;4.78;1.33;;;20.60;76.40;;;;;;6164149;23;20439;-87
2023/07/28 11:54:14;;;;;;;2.33;1.08;;;20.70;76.80;;;;;;6164333;23;20451;-88
2023/07/28 11:56:45;;;;;;;4.30;1.25;;;20.90;76.70;;;;;;6164033;23;20021;-86
2023/07/28 11:59:15;;;;;;;3.53;1.95;;;21.00;76.70;;;;;;6188978;23;20017;-88
2023/07/28 12:01:58;;;;;;;2.50;1.30;;;21.10;76.30;;;;;;6164051;23;20031;-88
2023/07/28 12:04:38;;;;;;;2.85;1.60;;;21.10;75.30;;;;;;6164724;23;20023;-87
2023/07/28 12:07:14;;;;;;;3.20;1.50;;;21.30;74.70;;;;;;6164198;23;20016;-87
2023/07/28 12:09:48;;;;;;;3.35;1.40;;;21.50;74.60;;;;;;6188909;23;20017;-88
2023/07/28 12:12:29;;;;;;;3.35;1.45;;;21.60;74.30;;;;;;6166490;23;20103;-87
2023/07/28 12:15:04;;;;;;;4.07;1.57;;;21.70;73.60;;;;;;6164066;23;20024;-87
2023/07/28 12:17:34;;;;;;;4.32;1.80;;;21.80;73.10;;;;;;6163978;23;20024;-87
2023/07/28 12:20:15;;;;;;;2.40;1.40;;;21.80;73.30;;;;;;6164543;23;20088;-87
2023/07/28 12:22:45;;;;;;;4.30;1.35;;;21.80;72.40;;;;;;6188686;23;20021;-88
2023/07/28 12:25:12;;;;;;;2.92;1.30;;;21.80;72.50;;;;;;6163753;23;20025;-87
2023/07/28 12:27:39;;;;;;;8.13;2.00;;;21.80;72.60;;;;;;6163567;23;20017;-87
2023/07/28 12:30:10;;;;;;;7.80;2.75;;;21.80;72.10;;;;;;6163587;23;20021;-85
2023/07/28 12:32:40;;;;;;;3.70;1.27;;;21.80;72.50;;;;;;6164667;23;20025;-88
2023/07/28 12:35:31;;;;;;;2.05;1.20;;;21.80;71.30;;;;;;6193327;23;20351;-86
2023/07/28 12:38:05;;;;;;;3.17;1.35;;;21.80;72.40;;;;;;6164345;23;20016;-87
2023/07/28 12:40:35;;;;;;;4.80;1.43;;;21.90;72.10;;;;;;6188167;23;20095;-87
2023/07/28 12:43:05;;;;;;;3.03;1.45;;;22.00;71.60;;;;;;6164071;23;20023;-87
2023/07/28 12:45:34;;;;;;;2.75;1.40;;;22.10;71.50;;;;;;6163315;23;20021;-87
2023/07/28 12:48:04;;;;;;;2.53;1.00;;;22.10;71.70;;;;;;6163614;23;20031;-86
2023/07/28 12:50:31;;;;;;;3.45;1.30;;;22.10;70.80;;;;;;6163485;23;20027;-87
2023/07/28 12:53:07;;;;;;;4.33;1.30;;;22.20;69.90;;;;;;6188153;23;20025;-87